sensor_id;sensor_type;location;lat;lon;timestamp;P1;durP1;ratioP1;P2;durP2;ratioP2
479;SDS011;226;48.606;9.096;2022-10-16T00:00:12;1.63;;;1.00;;
479;SDS011;226;48.606;9.096;2022-10-16T00:02:40;9.80;;;1.40;;
479;SDS011;226;48.606;9.096;2022-10-16T00:05:08;1.80;;;1.10;;
479;SDS011;226;48.606;9.096;2022-10-16T00:07:39;5.93;;;1.90;;
479;SDS011;226;48.606;9.096;2022-10-16T00:10:07;7.60;;;1.23;;
479;SDS011;226;48.606;9.096;2022-10-16T00:12:35;11.87;;;1.43;;
479;SDS011;226;48.606;9.096;2022-10-16T00:15:04;3.93;;;1.70;;
479;SDS011;226;48.606;9.096;2022-10-16T00:17:33;1.17;;;1.10;;
479;SDS011;226;48.606;9.096;2022-10-16T00:20:01;6.67;;;1.23;;
479;SDS011;226;48.606;9.096;2022-10-16T00:22:29;7.13;;;2.10;;
479;SDS011;226;48.606;9.096;2022-10-16T00:24:58;1.97;;;1.57;;
479;SDS011;226;48.606;9.096;2022-10-16T00:27:26;3.00;;;0.97;;
479;SDS011;226;48.606;9.096;2022-10-16T00:29:54;1.50;;;1.40;;
479;SDS011;226;48.606;9.096;2022-10-16T00:32:25;1.33;;;1.23;;
479;SDS011;226;48.606;9.096;2022-10-16T00:34:54;1.30;;;1.30;;
479;SDS011;226;48.606;9.096;2022-10-16T00:37:22;1.57;;;1.17;;
479;SDS011;226;48.606;9.096;2022-10-16T00:39:50;7.40;;;1.50;;
479;SDS011;226;48.606;9.096;2022-10-16T00:42:19;1.53;;;1.30;;
479;SDS011;226;48.606;9.096;2022-10-16T00:44:48;4.27;;;2.30;;
479;SDS011;226;48.606;9.096;2022-10-16T00:47:19;1.23;;;1.10;;
479;SDS011;226;48.606;9.096;2022-10-16T00:49:52;0.90;;;0.90;;
479;SDS011;226;48.606;9.096;2022-10-16T00:52:23;1.37;;;1.23;;
479;SDS011;226;48.606;9.096;2022-10-16T00:54:51;1.23;;;1.23;;
479;SDS011;226;48.606;9.096;2022-10-16T00:57:22;4.03;;;1.70;;
479;SDS011;226;48.606;9.096;2022-10-16T00:59:50;3.90;;;1.50;;
479;SDS011;226;48.606;9.096;2022-10-16T01:02:19;6.70;;;1.40;;
479;SDS011;226;48.606;9.096;2022-10-16T01:04:47;2.57;;;1.83;;
479;SDS011;226;48.606;9.096;2022-10-16T01:07:26;1.87;;;1.23;;
479;SDS011;226;48.606;9.096;2022-10-16T01:10:03;1.40;;;0.97;;
479;SDS011;226;48.606;9.096;2022-10-16T01:12:40;2.30;;;2.10;;
479;SDS011;226;48.606;9.096;2022-10-16T01:15:14;1.40;;;1.30;;
479;SDS011;226;48.606;9.096;2022-10-16T01:17:48;1.70;;;1.60;;
479;SDS011;226;48.606;9.096;2022-10-16T01:20:21;1.37;;;1.13;;
479;SDS011;226;48.606;9.096;2022-10-16T01:22:58;0.90;;;0.90;;
479;SDS011;226;48.606;9.096;2022-10-16T01:25:36;1.27;;;1.27;;
479;SDS011;226;48.606;9.096;2022-10-16T01:28:24;1.80;;;1.70;;
479;SDS011;226;48.606;9.096;2022-10-16T01:30:56;1.67;;;1.57;;
479;SDS011;226;48.606;9.096;2022-10-16T01:33:28;1.07;;;0.97;;
479;SDS011;226;48.606;9.096;2022-10-16T01:36:02;2.83;;;1.60;;
479;SDS011;226;48.606;9.096;2022-10-16T01:38:38;2.50;;;1.43;;
479;SDS011;226;48.606;9.096;2022-10-16T01:41:08;3.37;;;2.07;;
479;SDS011;226;48.606;9.096;2022-10-16T01:43:40;1.10;;;1.00;;
479;SDS011;226;48.606;9.096;2022-10-16T01:46:12;9.53;;;2.33;;
479;SDS011;226;48.606;9.096;2022-10-16T01:48:44;2.13;;;1.13;;
479;SDS011;226;48.606;9.096;2022-10-16T01:51:13;3.10;;;1.87;;
479;SDS011;226;48.606;9.096;2022-10-16T01:53:45;1.67;;;1.57;;
479;SDS011;226;48.606;9.096;2022-10-16T01:56:15;1.93;;;1.60;;
479;SDS011;226;48.606;9.096;2022-10-16T01:58:49;1.23;;;1.13;;
479;SDS011;226;48.606;9.096;2022-10-16T02:01:22;2.30;;;1.20;;
479;SDS011;226;48.606;9.096;2022-10-16T02:03:53;2.53;;;1.47;;
479;SDS011;226;48.606;9.096;2022-10-16T02:06:23;4.50;;;1.70;;
479;SDS011;226;48.606;9.096;2022-10-16T02:08:51;2.37;;;1.53;;
479;SDS011;226;48.606;9.096;2022-10-16T02:11:21;1.30;;;1.20;;
479;SDS011;226;48.606;9.096;2022-10-16T02:13:51;11.47;;;1.60;;
479;SDS011;226;48.606;9.096;2022-10-16T02:16:23;4.47;;;1.70;;
479;SDS011;226;48.606;9.096;2022-10-16T02:18:59;1.63;;;1.53;;
479;SDS011;226;48.606;9.096;2022-10-16T02:21:28;2.23;;;2.03;;
479;SDS011;226;48.606;9.096;2022-10-16T02:24:02;1.30;;;1.20;;
479;SDS011;226;48.606;9.096;2022-10-16T02:26:36;3.97;;;1.50;;
479;SDS011;226;48.606;9.096;2022-10-16T02:29:13;3.00;;;1.40;;
479;SDS011;226;48.606;9.096;2022-10-16T02:31:45;1.00;;;1.00;;
479;SDS011;226;48.606;9.096;2022-10-16T02:34:17;1.27;;;1.17;;
479;SDS011;226;48.606;9.096;2022-10-16T02:36:48;3.07;;;1.50;;
479;SDS011;226;48.606;9.096;2022-10-16T02:39:17;1.27;;;1.27;;
479;SDS011;226;48.606;9.096;2022-10-16T02:41:47;2.10;;;2.00;;
479;SDS011;226;48.606;9.096;2022-10-16T02:44:16;2.17;;;1.03;;
479;SDS011;226;48.606;9.096;2022-10-16T02:46:44;1.00;;;1.00;;
479;SDS011;226;48.606;9.096;2022-10-16T02:49:12;1.30;;;0.97;;
479;SDS011;226;48.606;9.096;2022-10-16T02:51:40;1.00;;;1.00;;
479;SDS011;226;48.606;9.096;2022-10-16T02:54:08;7.77;;;1.30;;
479;SDS011;226;48.606;9.096;2022-10-16T02:56:36;2.10;;;1.20;;
479;SDS011;226;48.606;9.096;2022-10-16T02:59:05;1.60;;;1.30;;
479;SDS011;226;48.606;9.096;2022-10-16T03:01:34;1.83;;;1.60;;
479;SDS011;226;48.606;9.096;2022-10-16T03:04:02;1.20;;;1.10;;
479;SDS011;226;48.606;9.096;2022-10-16T03:06:30;1.20;;;1.20;;
479;SDS011;226;48.606;9.096;2022-10-16T03:08:58;1.30;;;1.30;;
479;SDS011;226;48.606;9.096;2022-10-16T03:11:26;1.30;;;1.20;;
479;SDS011;226;48.606;9.096;2022-10-16T03:13:55;1.33;;;1.20;;
479;SDS011;226;48.606;9.096;2022-10-16T03:16:23;4.27;;;2.13;;
479;SDS011;226;48.606;9.096;2022-10-16T03:18:52;5.70;;;1.40;;
479;SDS011;226;48.606;9.096;2022-10-16T03:21:20;1.43;;;1.13;;
479;SDS011;226;48.606;9.096;2022-10-16T03:23:48;1.37;;;1.30;;
479;SDS011;226;48.606;9.096;2022-10-16T03:26:16;1.17;;;1.07;;
479;SDS011;226;48.606;9.096;2022-10-16T03:28:44;3.57;;;1.40;;
479;SDS011;226;48.606;9.096;2022-10-16T03:31:12;2.40;;;1.27;;
479;SDS011;226;48.606;9.096;2022-10-16T03:33:40;1.70;;;1.33;;
479;SDS011;226;48.606;9.096;2022-10-16T03:36:09;1.13;;;1.13;;
479;SDS011;226;48.606;9.096;2022-10-16T03:38:38;2.43;;;1.60;;
479;SDS011;226;48.606;9.096;2022-10-16T03:41:06;1.30;;;1.20;;
479;SDS011;226;48.606;9.096;2022-10-16T03:43:34;2.33;;;1.07;;
479;SDS011;226;48.606;9.096;2022-10-16T03:46:02;6.17;;;1.33;;
479;SDS011;226;48.606;9.096;2022-10-16T03:48:31;1.50;;;1.47;;
479;SDS011;226;48.606;9.096;2022-10-16T03:50:59;1.27;;;1.27;;
479;SDS011;226;48.606;9.096;2022-10-16T03:53:28;2.27;;;1.37;;
479;SDS011;226;48.606;9.096;2022-10-16T03:55:56;1.23;;;0.93;;
479;SDS011;226;48.606;9.096;2022-10-16T03:58:24;1.40;;;1.40;;
479;SDS011;226;48.606;9.096;2022-10-16T04:00:52;1.90;;;1.47;;
479;SDS011;226;48.606;9.096;2022-10-16T04:03:21;3.73;;;2.03;;
479;SDS011;226;48.606;9.096;2022-10-16T04:05:49;1.53;;;1.20;;
479;SDS011;226;48.606;9.096;2022-10-16T04:08:17;5.33;;;1.77;;
479;SDS011;226;48.606;9.096;2022-10-16T04:10:46;0.93;;;0.93;;
479;SDS011;226;48.606;9.096;2022-10-16T04:13:14;1.50;;;1.40;;
479;SDS011;226;48.606;9.096;2022-10-16T04:15:42;2.40;;;1.57;;
479;SDS011;226;48.606;9.096;2022-10-16T04:18:12;3.00;;;2.27;;
479;SDS011;226;48.606;9.096;2022-10-16T04:20:40;4.30;;;1.80;;
479;SDS011;226;48.606;9.096;2022-10-16T04:23:08;1.50;;;1.50;;
479;SDS011;226;48.606;9.096;2022-10-16T04:25:36;2.30;;;2.13;;
479;SDS011;226;48.606;9.096;2022-10-16T04:28:05;2.10;;;1.87;;
479;SDS011;226;48.606;9.096;2022-10-16T04:30:33;3.13;;;2.00;;
479;SDS011;226;48.606;9.096;2022-10-16T04:33:01;2.60;;;2.13;;
479;SDS011;226;48.606;9.096;2022-10-16T04:35:29;6.63;;;2.10;;
479;SDS011;226;48.606;9.096;2022-10-16T04:37:57;3.33;;;2.27;;
479;SDS011;226;48.606;9.096;2022-10-16T04:40:26;4.17;;;2.60;;
479;SDS011;226;48.606;9.096;2022-10-16T04:42:54;2.40;;;2.20;;
479;SDS011;226;48.606;9.096;2022-10-16T04:45:23;6.87;;;2.63;;
479;SDS011;226;48.606;9.096;2022-10-16T04:47:51;5.80;;;2.97;;
479;SDS011;226;48.606;9.096;2022-10-16T04:50:19;2.20;;;2.00;;
479;SDS011;226;48.606;9.096;2022-10-16T04:52:47;3.63;;;2.40;;
479;SDS011;226;48.606;9.096;2022-10-16T04:55:15;2.20;;;2.10;;
479;SDS011;226;48.606;9.096;2022-10-16T04:57:43;5.03;;;1.67;;
479;SDS011;226;48.606;9.096;2022-10-16T05:00:12;1.33;;;1.33;;
479;SDS011;226;48.606;9.096;2022-10-16T05:02:41;1.33;;;1.33;;
479;SDS011;226;48.606;9.096;2022-10-16T05:05:09;1.73;;;1.63;;
479;SDS011;226;48.606;9.096;2022-10-16T05:07:37;1.63;;;1.53;;
479;SDS011;226;48.606;9.096;2022-10-16T05:10:05;7.30;;;1.73;;
479;SDS011;226;48.606;9.096;2022-10-16T05:12:34;2.67;;;2.33;;
479;SDS011;226;48.606;9.096;2022-10-16T05:15:02;2.00;;;1.43;;
479;SDS011;226;48.606;9.096;2022-10-16T05:17:31;3.03;;;1.80;;
479;SDS011;226;48.606;9.096;2022-10-16T05:20:00;2.30;;;1.97;;
479;SDS011;226;48.606;9.096;2022-10-16T05:22:28;2.10;;;2.00;;
479;SDS011;226;48.606;9.096;2022-10-16T05:24:56;2.27;;;2.07;;
479;SDS011;226;48.606;9.096;2022-10-16T05:27:24;2.07;;;1.77;;
479;SDS011;226;48.606;9.096;2022-10-16T05:29:52;1.60;;;1.50;;
479;SDS011;226;48.606;9.096;2022-10-16T05:32:20;2.30;;;2.20;;
479;SDS011;226;48.606;9.096;2022-10-16T05:34:48;3.83;;;2.03;;
479;SDS011;226;48.606;9.096;2022-10-16T05:37:19;1.87;;;1.77;;
479;SDS011;226;48.606;9.096;2022-10-16T05:39:47;6.60;;;1.50;;
479;SDS011;226;48.606;9.096;2022-10-16T05:42:15;5.47;;;2.03;;
479;SDS011;226;48.606;9.096;2022-10-16T05:44:43;2.57;;;2.37;;
479;SDS011;226;48.606;9.096;2022-10-16T05:47:12;2.17;;;1.97;;
479;SDS011;226;48.606;9.096;2022-10-16T05:49:40;1.60;;;1.50;;
479;SDS011;226;48.606;9.096;2022-10-16T05:52:08;3.73;;;3.43;;
479;SDS011;226;48.606;9.096;2022-10-16T05:54:37;2.30;;;1.63;;
479;SDS011;226;48.606;9.096;2022-10-16T05:57:05;8.30;;;1.87;;
479;SDS011;226;48.606;9.096;2022-10-16T05:59:33;0.90;;;0.90;;
479;SDS011;226;48.606;9.096;2022-10-16T06:02:01;1.40;;;1.40;;
479;SDS011;226;48.606;9.096;2022-10-16T06:04:29;1.43;;;1.30;;
479;SDS011;226;48.606;9.096;2022-10-16T06:06:58;2.30;;;1.40;;
479;SDS011;226;48.606;9.096;2022-10-16T06:09:27;1.40;;;1.30;;
479;SDS011;226;48.606;9.096;2022-10-16T06:11:56;8.93;;;2.47;;
479;SDS011;226;48.606;9.096;2022-10-16T06:14:24;5.77;;;1.43;;
479;SDS011;226;48.606;9.096;2022-10-16T06:16:52;1.90;;;1.30;;
479;SDS011;226;48.606;9.096;2022-10-16T06:19:20;2.57;;;2.03;;
479;SDS011;226;48.606;9.096;2022-10-16T06:21:49;3.63;;;1.50;;
479;SDS011;226;48.606;9.096;2022-10-16T06:24:17;4.13;;;1.70;;
479;SDS011;226;48.606;9.096;2022-10-16T06:26:44;3.67;;;1.80;;
479;SDS011;226;48.606;9.096;2022-10-16T06:29:14;2.93;;;2.73;;
479;SDS011;226;48.606;9.096;2022-10-16T06:31:42;3.57;;;2.10;;
479;SDS011;226;48.606;9.096;2022-10-16T06:34:10;2.47;;;1.93;;
479;SDS011;226;48.606;9.096;2022-10-16T06:36:38;3.20;;;2.53;;
479;SDS011;226;48.606;9.096;2022-10-16T06:39:06;2.00;;;1.40;;
479;SDS011;226;48.606;9.096;2022-10-16T06:41:34;1.90;;;1.17;;
479;SDS011;226;48.606;9.096;2022-10-16T06:44:04;1.63;;;1.53;;
479;SDS011;226;48.606;9.096;2022-10-16T06:46:34;1.27;;;1.17;;
479;SDS011;226;48.606;9.096;2022-10-16T06:49:02;7.50;;;1.37;;
479;SDS011;226;48.606;9.096;2022-10-16T06:51:30;3.63;;;1.40;;
479;SDS011;226;48.606;9.096;2022-10-16T06:54:05;2.60;;;2.23;;
479;SDS011;226;48.606;9.096;2022-10-16T06:56:33;2.47;;;1.70;;
479;SDS011;226;48.606;9.096;2022-10-16T06:59:02;1.80;;;1.70;;
479;SDS011;226;48.606;9.096;2022-10-16T07:01:32;3.50;;;1.60;;
479;SDS011;226;48.606;9.096;2022-10-16T07:04:01;1.60;;;1.50;;
479;SDS011;226;48.606;9.096;2022-10-16T07:06:31;1.80;;;1.27;;
479;SDS011;226;48.606;9.096;2022-10-16T07:09:02;1.20;;;1.20;;
479;SDS011;226;48.606;9.096;2022-10-16T07:11:33;2.10;;;1.57;;
479;SDS011;226;48.606;9.096;2022-10-16T07:14:01;1.73;;;1.60;;
479;SDS011;226;48.606;9.096;2022-10-16T07:16:30;1.37;;;1.27;;
479;SDS011;226;48.606;9.096;2022-10-16T07:19:01;0.83;;;0.83;;
479;SDS011;226;48.606;9.096;2022-10-16T07:21:30;4.13;;;1.30;;
479;SDS011;226;48.606;9.096;2022-10-16T07:24:02;1.33;;;1.13;;
479;SDS011;226;48.606;9.096;2022-10-16T07:26:33;0.97;;;0.97;;
479;SDS011;226;48.606;9.096;2022-10-16T07:29:02;2.00;;;1.20;;
479;SDS011;226;48.606;9.096;2022-10-16T07:31:31;2.20;;;2.07;;
479;SDS011;226;48.606;9.096;2022-10-16T07:34:00;1.42;;;1.00;;
479;SDS011;226;48.606;9.096;2022-10-16T07:36:28;1.50;;;1.37;;
479;SDS011;226;48.606;9.096;2022-10-16T07:38:56;0.97;;;0.93;;
479;SDS011;226;48.606;9.096;2022-10-16T07:41:25;1.40;;;1.33;;
479;SDS011;226;48.606;9.096;2022-10-16T07:43:54;0.97;;;0.97;;
479;SDS011;226;48.606;9.096;2022-10-16T07:46:26;1.57;;;1.47;;
479;SDS011;226;48.606;9.096;2022-10-16T07:48:54;2.03;;;1.33;;
479;SDS011;226;48.606;9.096;2022-10-16T07:51:24;1.43;;;1.37;;
479;SDS011;226;48.606;9.096;2022-10-16T07:53:53;1.30;;;1.20;;
479;SDS011;226;48.606;9.096;2022-10-16T07:56:21;1.10;;;1.10;;
479;SDS011;226;48.606;9.096;2022-10-16T07:58:49;1.33;;;1.10;;
479;SDS011;226;48.606;9.096;2022-10-16T08:01:18;1.00;;;1.00;;
479;SDS011;226;48.606;9.096;2022-10-16T08:03:47;1.23;;;1.23;;
479;SDS011;226;48.606;9.096;2022-10-16T08:06:17;1.07;;;1.00;;
479;SDS011;226;48.606;9.096;2022-10-16T08:08:53;1.37;;;1.07;;
479;SDS011;226;48.606;9.096;2022-10-16T08:11:21;1.33;;;1.27;;
479;SDS011;226;48.606;9.096;2022-10-16T08:13:50;2.87;;;1.20;;
479;SDS011;226;48.606;9.096;2022-10-16T08:16:18;1.20;;;1.20;;
479;SDS011;226;48.606;9.096;2022-10-16T08:18:46;2.20;;;1.30;;
479;SDS011;226;48.606;9.096;2022-10-16T08:21:14;1.07;;;1.07;;
479;SDS011;226;48.606;9.096;2022-10-16T08:23:47;4.83;;;1.33;;
479;SDS011;226;48.606;9.096;2022-10-16T08:26:26;2.67;;;1.50;;
479;SDS011;226;48.606;9.096;2022-10-16T08:28:54;1.23;;;1.00;;
479;SDS011;226;48.606;9.096;2022-10-16T08:31:23;1.57;;;1.23;;
479;SDS011;226;48.606;9.096;2022-10-16T08:33:52;1.40;;;1.13;;
479;SDS011;226;48.606;9.096;2022-10-16T08:36:20;2.63;;;1.23;;
479;SDS011;226;48.606;9.096;2022-10-16T08:38:48;2.63;;;1.10;;
479;SDS011;226;48.606;9.096;2022-10-16T08:44:37;1.17;;;1.07;;
479;SDS011;226;48.606;9.096;2022-10-16T08:47:22;11.38;;;1.38;;
479;SDS011;226;48.606;9.096;2022-10-16T08:49:55;3.37;;;1.03;;
479;SDS011;226;48.606;9.096;2022-10-16T08:52:25;2.23;;;1.00;;
479;SDS011;226;48.606;9.096;2022-10-16T08:54:58;1.50;;;1.40;;
479;SDS011;226;48.606;9.096;2022-10-16T08:57:26;1.37;;;1.00;;
479;SDS011;226;48.606;9.096;2022-10-16T08:59:57;2.23;;;1.40;;
479;SDS011;226;48.606;9.096;2022-10-16T09:02:29;2.33;;;1.47;;
479;SDS011;226;48.606;9.096;2022-10-16T09:05:17;1.30;;;1.30;;
479;SDS011;226;48.606;9.096;2022-10-16T09:07:59;1.10;;;1.10;;
479;SDS011;226;48.606;9.096;2022-10-16T09:10:41;1.17;;;1.17;;
479;SDS011;226;48.606;9.096;2022-10-16T09:13:17;1.43;;;1.33;;
479;SDS011;226;48.606;9.096;2022-10-16T09:15:54;1.77;;;1.67;;
479;SDS011;226;48.606;9.096;2022-10-16T09:18:30;0.80;;;0.80;;
479;SDS011;226;48.606;9.096;2022-10-16T09:21:06;3.07;;;1.20;;
479;SDS011;226;48.606;9.096;2022-10-16T09:23:40;1.20;;;1.20;;
479;SDS011;226;48.606;9.096;2022-10-16T09:26:09;1.50;;;1.40;;
479;SDS011;226;48.606;9.096;2022-10-16T09:28:40;1.33;;;1.17;;
479;SDS011;226;48.606;9.096;2022-10-16T09:31:13;1.60;;;1.50;;
479;SDS011;226;48.606;9.096;2022-10-16T09:33:45;3.07;;;1.20;;
479;SDS011;226;48.606;9.096;2022-10-16T09:36:17;1.63;;;1.30;;
479;SDS011;226;48.606;9.096;2022-10-16T09:38:46;1.23;;;1.23;;
479;SDS011;226;48.606;9.096;2022-10-16T09:41:16;1.07;;;1.07;;
479;SDS011;226;48.606;9.096;2022-10-16T09:43:47;5.50;;;1.60;;
479;SDS011;226;48.606;9.096;2022-10-16T09:46:24;1.07;;;1.07;;
479;SDS011;226;48.606;9.096;2022-10-16T09:48:55;0.90;;;0.90;;
479;SDS011;226;48.606;9.096;2022-10-16T09:51:26;1.67;;;1.00;;
479;SDS011;226;48.606;9.096;2022-10-16T09:53:58;1.00;;;0.90;;
479;SDS011;226;48.606;9.096;2022-10-16T09:56:27;2.47;;;0.93;;
479;SDS011;226;48.606;9.096;2022-10-16T09:59:00;5.03;;;1.00;;
479;SDS011;226;48.606;9.096;2022-10-16T10:01:36;12.93;;;0.90;;
479;SDS011;226;48.606;9.096;2022-10-16T10:04:06;4.07;;;1.10;;
479;SDS011;226;48.606;9.096;2022-10-16T10:06:35;4.20;;;1.10;;
479;SDS011;226;48.606;9.096;2022-10-16T10:09:15;1.90;;;1.50;;
479;SDS011;226;48.606;9.096;2022-10-16T10:11:48;4.57;;;1.33;;
479;SDS011;226;48.606;9.096;2022-10-16T10:14:27;2.50;;;1.93;;
479;SDS011;226;48.606;9.096;2022-10-16T10:17:14;1.20;;;1.07;;
479;SDS011;226;48.606;9.096;2022-10-16T10:19:47;1.10;;;0.87;;
479;SDS011;226;48.606;9.096;2022-10-16T10:22:28;1.43;;;1.33;;
479;SDS011;226;48.606;9.096;2022-10-16T10:25:10;0.90;;;0.90;;
479;SDS011;226;48.606;9.096;2022-10-16T10:27:48;1.13;;;1.03;;
479;SDS011;226;48.606;9.096;2022-10-16T10:30:24;1.00;;;1.00;;
479;SDS011;226;48.606;9.096;2022-10-16T10:33:04;3.40;;;1.20;;
479;SDS011;226;48.606;9.096;2022-10-16T10:35:43;2.13;;;1.20;;
479;SDS011;226;48.606;9.096;2022-10-16T10:38:25;1.80;;;1.30;;
479;SDS011;226;48.606;9.096;2022-10-16T10:41:01;1.00;;;1.00;;
479;SDS011;226;48.606;9.096;2022-10-16T10:43:44;0.80;;;0.80;;
479;SDS011;226;48.606;9.096;2022-10-16T10:46:23;1.50;;;1.30;;
479;SDS011;226;48.606;9.096;2022-10-16T10:49:05;0.87;;;0.87;;
479;SDS011;226;48.606;9.096;2022-10-16T10:51:43;1.43;;;0.70;;
479;SDS011;226;48.606;9.096;2022-10-16T10:54:20;0.90;;;0.80;;
479;SDS011;226;48.606;9.096;2022-10-16T10:56:57;6.10;;;1.30;;
479;SDS011;226;48.606;9.096;2022-10-16T11:02:35;1.77;;;1.40;;
479;SDS011;226;48.606;9.096;2022-10-16T11:08:03;0.87;;;0.87;;
479;SDS011;226;48.606;9.096;2022-10-16T11:10:41;0.77;;;0.77;;
479;SDS011;226;48.606;9.096;2022-10-16T11:13:16;0.97;;;0.67;;
479;SDS011;226;48.606;9.096;2022-10-16T11:15:50;5.40;;;1.17;;
479;SDS011;226;48.606;9.096;2022-10-16T11:18:22;1.33;;;1.03;;
479;SDS011;226;48.606;9.096;2022-10-16T11:20:57;1.07;;;0.90;;
479;SDS011;226;48.606;9.096;2022-10-16T11:23:30;1.13;;;1.10;;
479;SDS011;226;48.606;9.096;2022-10-16T11:26:04;1.80;;;1.70;;
479;SDS011;226;48.606;9.096;2022-10-16T11:28:37;1.00;;;1.00;;
479;SDS011;226;48.606;9.096;2022-10-16T11:31:10;1.20;;;1.20;;
479;SDS011;226;48.606;9.096;2022-10-16T11:33:44;0.80;;;0.80;;
479;SDS011;226;48.606;9.096;2022-10-16T11:36:19;1.70;;;1.17;;
479;SDS011;226;48.606;9.096;2022-10-16T11:38:55;1.30;;;1.20;;
479;SDS011;226;48.606;9.096;2022-10-16T11:41:32;1.23;;;1.13;;
479;SDS011;226;48.606;9.096;2022-10-16T11:44:06;1.40;;;1.30;;
479;SDS011;226;48.606;9.096;2022-10-16T11:46:45;0.80;;;0.80;;
479;SDS011;226;48.606;9.096;2022-10-16T11:49:40;1.13;;;1.03;;
479;SDS011;226;48.606;9.096;2022-10-16T11:52:12;1.87;;;1.50;;
479;SDS011;226;48.606;9.096;2022-10-16T11:54:47;0.80;;;0.80;;
479;SDS011;226;48.606;9.096;2022-10-16T11:57:19;1.70;;;1.27;;
479;SDS011;226;48.606;9.096;2022-10-16T11:59:52;0.80;;;0.80;;
479;SDS011;226;48.606;9.096;2022-10-16T12:02:38;1.53;;;1.20;;
479;SDS011;226;48.606;9.096;2022-10-16T12:05:22;1.03;;;1.00;;
479;SDS011;226;48.606;9.096;2022-10-16T12:08:02;1.50;;;0.83;;
479;SDS011;226;48.606;9.096;2022-10-16T12:10:35;0.80;;;0.80;;
479;SDS011;226;48.606;9.096;2022-10-16T12:16:06;1.37;;;1.27;;
479;SDS011;226;48.606;9.096;2022-10-16T12:18:47;0.93;;;0.90;;
479;SDS011;226;48.606;9.096;2022-10-16T12:21:16;0.77;;;0.77;;
479;SDS011;226;48.606;9.096;2022-10-16T12:23:50;1.33;;;1.10;;
479;SDS011;226;48.606;9.096;2022-10-16T12:26:23;1.27;;;1.10;;
479;SDS011;226;48.606;9.096;2022-10-16T12:28:53;1.40;;;1.17;;
479;SDS011;226;48.606;9.096;2022-10-16T12:31:21;1.27;;;1.10;;
479;SDS011;226;48.606;9.096;2022-10-16T12:33:55;1.13;;;1.03;;
479;SDS011;226;48.606;9.096;2022-10-16T12:36:27;1.20;;;0.90;;
479;SDS011;226;48.606;9.096;2022-10-16T12:38:58;1.23;;;1.10;;
479;SDS011;226;48.606;9.096;2022-10-16T12:41:28;1.63;;;1.53;;
479;SDS011;226;48.606;9.096;2022-10-16T12:43:57;1.50;;;1.43;;
479;SDS011;226;48.606;9.096;2022-10-16T12:46:34;1.73;;;1.63;;
479;SDS011;226;48.606;9.096;2022-10-16T12:49:06;4.87;;;1.33;;
479;SDS011;226;48.606;9.096;2022-10-16T12:51:47;1.50;;;1.40;;
479;SDS011;226;48.606;9.096;2022-10-16T12:54:17;1.50;;;1.00;;
479;SDS011;226;48.606;9.096;2022-10-16T12:56:50;1.70;;;1.00;;
479;SDS011;226;48.606;9.096;2022-10-16T12:59:38;4.63;;;1.07;;
479;SDS011;226;48.606;9.096;2022-10-16T13:02:19;2.17;;;1.37;;
479;SDS011;226;48.606;9.096;2022-10-16T13:05:21;1.73;;;1.20;;
479;SDS011;226;48.606;9.096;2022-10-16T13:08:24;5.87;;;1.40;;
479;SDS011;226;48.606;9.096;2022-10-16T13:11:05;1.33;;;1.17;;
479;SDS011;226;48.606;9.096;2022-10-16T13:13:50;2.33;;;1.30;;
479;SDS011;226;48.606;9.096;2022-10-16T13:16:33;1.20;;;1.10;;
479;SDS011;226;48.606;9.096;2022-10-16T13:19:15;2.60;;;1.47;;
479;SDS011;226;48.606;9.096;2022-10-16T13:21:51;1.90;;;1.23;;
479;SDS011;226;48.606;9.096;2022-10-16T13:24:31;1.80;;;1.37;;
479;SDS011;226;48.606;9.096;2022-10-16T13:27:21;1.53;;;1.53;;
479;SDS011;226;48.606;9.096;2022-10-16T13:30:00;1.17;;;1.07;;
479;SDS011;226;48.606;9.096;2022-10-16T13:32:38;4.37;;;1.27;;
479;SDS011;226;48.606;9.096;2022-10-16T13:35:18;6.10;;;1.37;;
479;SDS011;226;48.606;9.096;2022-10-16T13:37:47;1.10;;;1.10;;
479;SDS011;226;48.606;9.096;2022-10-16T13:40:19;4.17;;;1.67;;
479;SDS011;226;48.606;9.096;2022-10-16T13:42:50;4.23;;;2.60;;
479;SDS011;226;48.606;9.096;2022-10-16T13:45:20;2.53;;;2.33;;
479;SDS011;226;48.606;9.096;2022-10-16T13:47:49;1.73;;;1.40;;
479;SDS011;226;48.606;9.096;2022-10-16T13:50:28;1.13;;;1.03;;
479;SDS011;226;48.606;9.096;2022-10-16T13:53:03;1.70;;;1.37;;
479;SDS011;226;48.606;9.096;2022-10-16T13:55:32;1.47;;;1.37;;
479;SDS011;226;48.606;9.096;2022-10-16T13:58:10;2.97;;;2.03;;
479;SDS011;226;48.606;9.096;2022-10-16T14:00:40;3.60;;;2.13;;
479;SDS011;226;48.606;9.096;2022-10-16T14:03:20;6.00;;;3.17;;
479;SDS011;226;48.606;9.096;2022-10-16T14:05:49;8.60;;;2.90;;
479;SDS011;226;48.606;9.096;2022-10-16T14:08:19;1.90;;;1.40;;
479;SDS011;226;48.606;9.096;2022-10-16T14:10:48;3.27;;;1.60;;
479;SDS011;226;48.606;9.096;2022-10-16T14:13:20;1.50;;;1.00;;
479;SDS011;226;48.606;9.096;2022-10-16T14:15:55;7.30;;;1.10;;
479;SDS011;226;48.606;9.096;2022-10-16T14:18:25;3.90;;;1.57;;
479;SDS011;226;48.606;9.096;2022-10-16T14:21:04;1.43;;;1.00;;
479;SDS011;226;48.606;9.096;2022-10-16T14:23:36;1.27;;;1.17;;
479;SDS011;226;48.606;9.096;2022-10-16T14:26:07;2.00;;;1.40;;
479;SDS011;226;48.606;9.096;2022-10-16T14:28:42;1.80;;;1.30;;
479;SDS011;226;48.606;9.096;2022-10-16T14:31:24;1.20;;;1.20;;
479;SDS011;226;48.606;9.096;2022-10-16T14:33:57;1.10;;;1.10;;
479;SDS011;226;48.606;9.096;2022-10-16T14:36:26;1.33;;;1.23;;
479;SDS011;226;48.606;9.096;2022-10-16T14:38:59;1.27;;;1.23;;
479;SDS011;226;48.606;9.096;2022-10-16T14:41:30;0.80;;;0.80;;
479;SDS011;226;48.606;9.096;2022-10-16T14:44:02;2.60;;;1.70;;
479;SDS011;226;48.606;9.096;2022-10-16T14:46:33;3.03;;;2.13;;
479;SDS011;226;48.606;9.096;2022-10-16T14:49:04;7.60;;;3.30;;
479;SDS011;226;48.606;9.096;2022-10-16T14:51:43;5.70;;;2.90;;
479;SDS011;226;48.606;9.096;2022-10-16T14:54:12;1.13;;;1.10;;
479;SDS011;226;48.606;9.096;2022-10-16T14:56:42;1.63;;;1.23;;
479;SDS011;226;48.606;9.096;2022-10-16T14:59:16;1.57;;;1.47;;
479;SDS011;226;48.606;9.096;2022-10-16T15:01:47;3.77;;;2.13;;
479;SDS011;226;48.606;9.096;2022-10-16T15:04:15;1.77;;;1.67;;
479;SDS011;226;48.606;9.096;2022-10-16T15:06:44;2.13;;;1.93;;
479;SDS011;226;48.606;9.096;2022-10-16T15:09:12;11.00;;;3.80;;
479;SDS011;226;48.606;9.096;2022-10-16T15:11:40;4.10;;;2.47;;
479;SDS011;226;48.606;9.096;2022-10-16T15:14:10;6.40;;;2.80;;
479;SDS011;226;48.606;9.096;2022-10-16T15:16:41;7.57;;;1.60;;
479;SDS011;226;48.606;9.096;2022-10-16T15:19:09;4.97;;;2.93;;
479;SDS011;226;48.606;9.096;2022-10-16T15:21:37;13.97;;;4.90;;
479;SDS011;226;48.606;9.096;2022-10-16T15:24:08;8.73;;;4.50;;
479;SDS011;226;48.606;9.096;2022-10-16T15:26:44;17.20;;;6.90;;
479;SDS011;226;48.606;9.096;2022-10-16T15:29:13;18.67;;;7.97;;
479;SDS011;226;48.606;9.096;2022-10-16T15:31:42;5.57;;;4.03;;
479;SDS011;226;48.606;9.096;2022-10-16T15:34:10;5.43;;;2.77;;
479;SDS011;226;48.606;9.096;2022-10-16T15:36:39;5.47;;;3.00;;
479;SDS011;226;48.606;9.096;2022-10-16T15:39:12;9.73;;;2.80;;
479;SDS011;226;48.606;9.096;2022-10-16T15:41:42;3.47;;;2.60;;
479;SDS011;226;48.606;9.096;2022-10-16T15:44:10;9.53;;;3.60;;
479;SDS011;226;48.606;9.096;2022-10-16T15:46:38;4.77;;;3.03;;
479;SDS011;226;48.606;9.096;2022-10-16T15:49:08;5.23;;;2.30;;
479;SDS011;226;48.606;9.096;2022-10-16T15:51:37;4.10;;;1.70;;
479;SDS011;226;48.606;9.096;2022-10-16T15:54:06;6.43;;;1.87;;
479;SDS011;226;48.606;9.096;2022-10-16T15:56:34;6.30;;;1.90;;
479;SDS011;226;48.606;9.096;2022-10-16T15:59:03;4.93;;;3.10;;
479;SDS011;226;48.606;9.096;2022-10-16T16:01:32;5.20;;;2.50;;
479;SDS011;226;48.606;9.096;2022-10-16T16:04:01;4.30;;;2.90;;
479;SDS011;226;48.606;9.096;2022-10-16T16:06:42;4.20;;;3.07;;
479;SDS011;226;48.606;9.096;2022-10-16T16:09:11;13.83;;;2.37;;
479;SDS011;226;48.606;9.096;2022-10-16T16:11:40;12.13;;;3.37;;
479;SDS011;226;48.606;9.096;2022-10-16T16:14:09;2.93;;;2.40;;
479;SDS011;226;48.606;9.096;2022-10-16T16:16:39;8.20;;;2.97;;
479;SDS011;226;48.606;9.096;2022-10-16T16:19:07;22.80;;;5.60;;
479;SDS011;226;48.606;9.096;2022-10-16T16:21:37;7.53;;;3.90;;
479;SDS011;226;48.606;9.096;2022-10-16T16:24:07;10.57;;;2.97;;